Spencer, SD (57374)

3:21 PM CDT on March 28, 2017 (GMT -0500)
Rural Canova, SD | | Change Station

Elev 1542 ft 43.81 °N, 97.48 °W | Updated 8 seconds ago

Partly Cloudy
Partly Cloudy
59.8 °F
Feels Like 59.8 °F
N
10.7
Wind Variable Wind from ENE
Gusts 13.8 mph

Today
High -- | Low -- °F
--% Chance of Precip.
Yesterday
High -- | Low -- °F
Precip. -- in
Pressure 30.11 in
Visibility 10.0 miles
Clouds Clear
Dew Point 43 °F
Humidity 53%
Rainfall 0.00 in
Snow Depth Not available.
7:18 AM 7:52 PM
New Moon, 1% visible
METAR KMHE 281953Z AUTO 08009KT 10SM CLR 16/02 A3009 RMK AO2 SLP195 T01560022
Pressure 30.11 in
Visibility 10.0 miles
Clouds Clear
Dew Point 43 °F
Humidity 53%
Rainfall 0.00 in
Snow Depth Not available.
7:18 AM 7:52 PM
New Moon, 1% visible
METAR KMHE 281953Z AUTO 08009KT 10SM CLR 16/02 A3009 RMK AO2 SLP195 T01560022

Get Severe Weather Alerts

Thanks for signing up!

Be on the lookout for a verification email in your inbox.

You'll start receiving the daily forecast at 8 AM.

×

10-Day Weather Forecast

Almanac

Astronomy

Mar. 28, 2017 Rise Set
Actual Time
Civil Twilight
Nautical Twilight
Astronomical Twilight
Moon
Length of Visible Light
Length of Day
Tomorrow will be .
, % of the Moon is Illuminated

Today's Extremes

State Highs State Lows

Community

WunderPhotos

Upload Photos

1,962,540 photos uploaded!

WunderBlog® & News

Nearby

Air Quality

  Air Quality AQ Index Pollutant
Not available.

Snow Depth

Station Depth Elevation

Earthquake Activity

City Distance Mag. Time & Date
Minimum magnitude displayed is 2.5.

Earthquake Activity

City Distance Mag. Time & Date
Minimum magnitude displayed is 2.5.

Coastal Water Temperatures

Place Temperature

Stations

Nearby Weather Stations

Station Location Temp. Windchill Dew Point Humidity Wind Precip. Elev Updated Type
                   

Watches & Warnings

There are currently no watches in effect.